createdAt,value
2017-10-12T00:00:00.877Z,0
2017-10-12T00:01:45.689Z,0
2017-10-12T00:02:46.299Z,0
2017-10-12T00:03:46.908Z,0
2017-10-12T00:04:47.520Z,0
2017-10-12T00:05:48.130Z,0
2017-10-12T00:06:48.742Z,0
2017-10-12T00:07:49.351Z,0
2017-10-12T00:08:49.962Z,0
2017-10-12T00:09:50.572Z,0
2017-10-12T00:10:51.184Z,0
2017-10-12T00:11:51.845Z,0
2017-10-12T00:12:52.468Z,0
2017-10-12T00:13:53.110Z,0
2017-10-12T00:14:53.721Z,0
2017-10-12T00:15:54.332Z,0
2017-10-12T00:16:54.943Z,0
2017-10-12T00:17:55.555Z,0
2017-10-12T00:18:56.188Z,0
2017-10-12T00:19:56.798Z,0
2017-10-12T00:20:57.408Z,0
2017-10-12T00:21:58.019Z,0
2017-10-12T00:22:58.618Z,0
2017-10-12T00:23:59.229Z,0
2017-10-12T00:24:59.840Z,0
2017-10-12T00:26:00.448Z,0
2017-10-12T00:27:01.049Z,0
2017-10-12T00:28:01.657Z,0
2017-10-12T00:29:02.269Z,0
2017-10-12T00:30:02.874Z,0
2017-10-12T00:31:03.476Z,0
2017-10-12T00:32:04.082Z,0
2017-10-12T00:33:04.696Z,0
2017-10-12T00:34:05.308Z,0
2017-10-12T00:35:05.919Z,0
2017-10-12T00:36:06.515Z,0
2017-10-12T00:37:07.123Z,0
2017-10-12T00:38:07.730Z,0
2017-10-12T00:39:08.344Z,0
2017-10-12T00:40:08.953Z,0
2017-10-12T00:41:09.565Z,0
2017-10-12T00:42:10.172Z,0
2017-10-12T00:43:10.783Z,0
2017-10-12T00:44:11.390Z,0
2017-10-12T00:45:11.998Z,0
2017-10-12T00:46:12.606Z,0
2017-10-12T00:47:13.217Z,0
2017-10-12T00:48:13.823Z,0
2017-10-12T00:49:14.424Z,0
2017-10-12T00:50:15.036Z,0
2017-10-12T00:51:15.638Z,0
2017-10-12T00:52:16.246Z,0
2017-10-12T00:53:16.856Z,0
2017-10-12T00:54:17.467Z,0
2017-10-12T00:55:18.080Z,0
2017-10-12T00:56:18.687Z,0
2017-10-12T00:57:19.299Z,0
2017-10-12T00:58:19.907Z,0
2017-10-12T00:59:20.506Z,0
2017-10-12T01:00:21.117Z,0
2017-10-12T01:01:21.730Z,0
2017-10-12T01:02:22.330Z,0
2017-10-12T01:03:22.938Z,0
2017-10-12T01:04:23.552Z,0
2017-10-12T01:05:24.159Z,0
2017-10-12T01:06:24.770Z,0
2017-10-12T01:07:25.377Z,0
2017-10-12T01:08:25.988Z,0
2017-10-12T01:09:26.599Z,0
2017-10-12T01:10:27.210Z,0
2017-10-12T01:11:27.816Z,0
2017-10-12T01:12:28.426Z,0
2017-10-12T01:13:29.027Z,0
2017-10-12T01:14:29.635Z,0
2017-10-12T01:15:30.244Z,0
2017-10-12T01:16:30.853Z,0
2017-10-12T01:17:31.463Z,0
2017-10-12T01:18:32.074Z,0
2017-10-12T01:19:32.672Z,0
2017-10-12T01:20:33.282Z,0
2017-10-12T01:21:33.891Z,0
2017-10-12T01:22:34.489Z,0
2017-10-12T01:23:35.090Z,0
2017-10-12T01:24:35.690Z,0
2017-10-12T01:25:36.298Z,0
2017-10-12T01:26:36.900Z,0
2017-10-12T01:27:37.509Z,0
2017-10-12T01:28:38.108Z,0
2017-10-12T01:29:38.716Z,0
2017-10-12T01:30:39.314Z,0
2017-10-12T01:31:39.924Z,0
2017-10-12T01:32:40.533Z,0
2017-10-12T01:33:41.141Z,0
2017-10-12T01:34:41.751Z,0
2017-10-12T01:35:42.362Z,0
2017-10-12T01:36:42.970Z,0
2017-10-12T01:37:43.573Z,0
2017-10-12T01:38:44.182Z,0
2017-10-12T01:39:44.792Z,0
2017-10-12T01:40:45.405Z,0
2017-10-12T01:41:46.015Z,0
2017-10-12T01:42:46.614Z,0
2017-10-12T01:43:47.227Z,0
2017-10-12T01:44:47.824Z,0
2017-10-12T01:45:48.438Z,0
2017-10-12T01:46:49.043Z,0
2017-10-12T01:47:49.648Z,0
2017-10-12T01:48:50.253Z,0
2017-10-12T01:49:50.861Z,0
2017-10-12T01:50:51.468Z,0
2017-10-12T01:51:52.078Z,0
2017-10-12T01:52:52.686Z,0
2017-10-12T01:53:53.296Z,0
2017-10-12T01:54:53.894Z,0
2017-10-12T01:55:54.503Z,0
2017-10-12T01:56:55.111Z,0
2017-10-12T01:57:55.728Z,0
2017-10-12T01:58:56.319Z,0
2017-10-12T01:59:56.924Z,0
2017-10-12T02:00:57.524Z,0
2017-10-12T02:01:58.123Z,0
2017-10-12T02:02:58.723Z,0
2017-10-12T02:03:59.332Z,0
2017-10-12T02:04:59.939Z,0
2017-10-12T02:06:00.538Z,0
2017-10-12T02:07:01.136Z,0
2017-10-12T02:08:01.746Z,0
2017-10-12T02:09:02.368Z,0
2017-10-12T02:10:02.944Z,0
2017-10-12T02:11:03.549Z,0
2017-10-12T02:12:04.157Z,0
2017-10-12T02:13:04.769Z,0
2017-10-12T02:14:05.366Z,0
2017-10-12T02:15:05.975Z,0
2017-10-12T02:16:06.581Z,0
2017-10-12T02:17:07.183Z,0
2017-10-12T02:18:07.791Z,0
2017-10-12T02:19:08.394Z,0
2017-10-12T02:20:09.004Z,0
2017-10-12T02:21:09.615Z,0
2017-10-12T02:22:10.223Z,0
2017-10-12T02:23:10.834Z,0
2017-10-12T02:24:11.438Z,0
2017-10-12T02:25:12.044Z,0
2017-10-12T02:26:12.643Z,0
2017-10-12T02:27:13.255Z,0
2017-10-12T02:28:13.862Z,0
2017-10-12T02:29:14.477Z,0
2017-10-12T02:30:15.083Z,0
2017-10-12T02:31:15.692Z,0
2017-10-12T02:32:16.289Z,0
2017-10-12T02:33:16.894Z,0
2017-10-12T02:34:17.499Z,0
2017-10-12T02:35:18.120Z,0
2017-10-12T02:36:18.727Z,0
2017-10-12T02:37:19.324Z,0
2017-10-12T02:38:19.941Z,0
2017-10-12T02:39:20.545Z,0
2017-10-12T02:40:21.146Z,0
2017-10-12T02:41:21.754Z,0
2017-10-12T02:42:22.361Z,0
2017-10-12T02:43:22.967Z,0
2017-10-12T02:44:23.578Z,0
2017-10-12T02:45:24.240Z,0
2017-10-12T02:46:24.848Z,0
2017-10-12T02:47:25.446Z,0
2017-10-12T02:48:26.054Z,0
2017-10-12T02:49:26.651Z,0
2017-10-12T02:50:27.262Z,0
2017-10-12T02:51:27.859Z,0
2017-10-12T02:52:28.460Z,0
2017-10-12T02:53:29.059Z,0
2017-10-12T02:54:29.671Z,0
2017-10-12T02:55:30.264Z,0
2017-10-12T02:56:30.872Z,0
2017-10-12T02:57:31.483Z,0
2017-10-12T02:58:32.079Z,0
2017-10-12T02:59:32.679Z,0
2017-10-12T03:00:33.296Z,0
2017-10-12T03:01:33.897Z,0
2017-10-12T03:02:34.500Z,0
2017-10-12T03:03:35.095Z,0
2017-10-12T03:04:35.692Z,0
2017-10-12T03:05:36.306Z,0
2017-10-12T03:06:36.901Z,0
2017-10-12T03:07:37.500Z,0
2017-10-12T03:08:38.108Z,0
2017-10-12T03:09:38.717Z,0
2017-10-12T03:10:39.314Z,0
2017-10-12T03:11:39.922Z,0
2017-10-12T03:12:40.525Z,0
2017-10-12T03:13:41.128Z,0
2017-10-12T03:14:41.742Z,0
2017-10-12T03:15:42.349Z,0
2017-10-12T03:16:42.942Z,0
2017-10-12T03:17:43.540Z,0
2017-10-12T03:18:44.152Z,0
2017-10-12T03:19:44.761Z,0
2017-10-12T03:20:45.357Z,0
2017-10-12T03:21:45.955Z,0
2017-10-12T03:22:46.563Z,0
2017-10-12T03:23:47.161Z,0
2017-10-12T03:24:47.771Z,0
2017-10-12T03:25:48.379Z,0
2017-10-12T03:26:48.993Z,0
2017-10-12T03:27:49.599Z,0
2017-10-12T03:28:50.208Z,0
2017-10-12T03:29:50.815Z,0
2017-10-12T03:30:51.414Z,0
2017-10-12T03:31:52.031Z,0
2017-10-12T03:32:52.639Z,0
2017-10-12T03:33:53.251Z,0
2017-10-12T03:34:53.853Z,0
2017-10-12T03:35:54.463Z,0
2017-10-12T03:36:55.070Z,0
2017-10-12T03:37:55.679Z,0
2017-10-12T03:38:56.279Z,0
2017-10-12T03:39:56.871Z,0
2017-10-12T03:40:57.481Z,0
2017-10-12T03:41:58.089Z,0
2017-10-12T03:42:58.689Z,0
2017-10-12T03:43:59.301Z,0
2017-10-12T03:44:59.902Z,0
2017-10-12T03:46:00.506Z,0
2017-10-12T03:47:01.114Z,0
2017-10-12T03:48:01.714Z,0
2017-10-12T03:49:02.322Z,0
2017-10-12T03:50:02.935Z,0
2017-10-12T03:51:03.533Z,0
2017-10-12T03:52:04.139Z,0
2017-10-12T03:53:04.737Z,0
2017-10-12T03:54:05.346Z,0
2017-10-12T03:55:05.958Z,0
2017-10-12T03:56:06.566Z,0
2017-10-12T03:57:07.164Z,0
2017-10-12T03:58:07.765Z,0
2017-10-12T03:59:08.374Z,0
2017-10-12T04:00:08.972Z,0
2017-10-12T04:01:09.578Z,0
2017-10-12T04:02:10.190Z,0
2017-10-12T04:03:10.795Z,0
2017-10-12T04:04:11.392Z,0
2017-10-12T04:05:12.005Z,0
2017-10-12T04:06:12.607Z,0
2017-10-12T04:07:13.212Z,0
2017-10-12T04:08:13.815Z,0
2017-10-12T04:09:14.426Z,0
2017-10-12T04:10:15.037Z,0
2017-10-12T04:11:15.645Z,0
2017-10-12T04:12:16.245Z,0
2017-10-12T04:13:16.850Z,0
2017-10-12T04:14:17.465Z,0
2017-10-12T04:15:18.070Z,0
2017-10-12T04:16:18.676Z,0
2017-10-12T04:17:19.293Z,0
2017-10-12T04:18:19.885Z,0
2017-10-12T04:19:20.501Z,0
2017-10-12T04:20:21.114Z,0
2017-10-12T04:21:21.728Z,0
2017-10-12T04:22:22.334Z,0
2017-10-12T04:23:22.945Z,0
2017-10-12T04:24:23.538Z,0
2017-10-12T04:25:24.145Z,0
2017-10-12T04:26:24.753Z,0
2017-10-12T04:27:25.362Z,0
2017-10-12T04:28:25.969Z,0
2017-10-12T04:29:26.580Z,0
2017-10-12T04:30:27.212Z,0
2017-10-12T04:31:27.793Z,0
2017-10-12T04:32:28.403Z,0
2017-10-12T04:33:29.011Z,0
2017-10-12T04:34:29.620Z,0
2017-10-12T04:35:30.230Z,0
2017-10-12T04:36:30.831Z,0
2017-10-12T04:37:31.440Z,0
2017-10-12T04:38:32.039Z,0
2017-10-12T04:39:32.668Z,0
2017-10-12T04:40:33.261Z,0
2017-10-12T04:41:33.881Z,0
2017-10-12T04:42:34.478Z,0
2017-10-12T04:43:35.083Z,0
2017-10-12T04:44:35.694Z,0
2017-10-12T04:45:36.299Z,0
2017-10-12T04:46:36.910Z,0
2017-10-12T04:47:37.521Z,0
2017-10-12T04:48:38.127Z,0
2017-10-12T04:49:38.737Z,0
2017-10-12T04:50:39.346Z,0
2017-10-12T04:51:39.955Z,0
2017-10-12T04:52:40.558Z,0
2017-10-12T04:53:41.162Z,0
2017-10-12T04:54:41.773Z,0
2017-10-12T04:55:42.380Z,0
2017-10-12T04:56:42.992Z,0
2017-10-12T04:57:43.603Z,0
2017-10-12T04:58:44.211Z,0
2017-10-12T04:59:44.817Z,0
2017-10-12T05:00:45.426Z,0
2017-10-12T05:01:46.036Z,0
2017-10-12T05:02:46.645Z,0
2017-10-12T05:03:47.255Z,0
2017-10-12T05:04:47.848Z,0
2017-10-12T05:05:48.456Z,0
2017-10-12T05:06:49.056Z,0
2017-10-12T05:07:49.664Z,0
2017-10-12T05:08:50.276Z,0
2017-10-12T05:09:50.885Z,0
2017-10-12T05:10:51.492Z,0
2017-10-12T05:11:52.104Z,0
2017-10-12T05:12:52.709Z,0
2017-10-12T05:13:53.319Z,0
2017-10-12T05:14:53.939Z,0
2017-10-12T05:15:54.521Z,0
2017-10-12T05:16:55.133Z,0
2017-10-12T05:17:55.740Z,0
2017-10-12T05:18:56.339Z,0
2017-10-12T05:19:56.947Z,0
2017-10-12T05:20:57.557Z,0
2017-10-12T05:21:58.175Z,0
2017-10-12T05:22:58.768Z,0
2017-10-12T05:23:59.376Z,0
2017-10-12T05:24:59.970Z,0
2017-10-12T05:26:00.568Z,0
2017-10-12T05:27:01.167Z,0
2017-10-12T05:28:01.777Z,0
2017-10-12T05:29:02.389Z,0
2017-10-12T05:30:03.001Z,0
2017-10-12T05:31:03.608Z,0
2017-10-12T05:32:04.221Z,0
2017-10-12T05:33:04.838Z,0
2017-10-12T05:34:05.443Z,0
2017-10-12T05:35:06.055Z,0
2017-10-12T05:36:06.663Z,0
2017-10-12T05:37:07.273Z,0
2017-10-12T05:38:07.883Z,0
2017-10-12T05:39:08.489Z,0
2017-10-12T05:40:09.091Z,0
2017-10-12T05:41:09.701Z,0
2017-10-12T05:42:10.310Z,0
2017-10-12T05:43:10.923Z,0
2017-10-12T05:44:11.531Z,0
2017-10-12T05:45:12.133Z,5
2017-10-12T05:46:12.747Z,5
2017-10-12T05:47:13.356Z,5
2017-10-12T05:48:13.960Z,10
2017-10-12T05:49:14.574Z,10
2017-10-12T05:50:15.180Z,10
2017-10-12T05:51:15.794Z,15
2017-10-12T05:52:16.409Z,15
2017-10-12T05:53:17.019Z,15
2017-10-12T05:54:17.630Z,15
2017-10-12T05:55:18.243Z,15
2017-10-12T05:56:18.855Z,15
2017-10-12T05:57:19.469Z,15
2017-10-12T05:58:20.087Z,20
2017-10-12T05:59:20.702Z,20
2017-10-12T06:00:21.319Z,25
2017-10-12T06:01:21.928Z,30
2017-10-12T06:02:22.539Z,30
2017-10-12T06:03:23.148Z,35
2017-10-12T06:04:23.775Z,35
2017-10-12T06:05:24.362Z,40
2017-10-12T06:06:24.969Z,40
2017-10-12T06:07:25.583Z,45
2017-10-12T06:08:26.196Z,45
2017-10-12T06:09:26.808Z,50
2017-10-12T06:10:27.411Z,50
2017-10-12T06:11:28.014Z,55
2017-10-12T06:12:28.660Z,60
2017-10-12T06:13:29.240Z,60
2017-10-12T06:14:29.849Z,65
2017-10-12T06:15:30.462Z,75
2017-10-12T06:16:31.080Z,80
2017-10-12T06:17:31.684Z,90
2017-10-12T06:18:32.305Z,95
2017-10-12T06:19:32.915Z,100
2017-10-12T06:20:33.527Z,110
2017-10-12T06:21:34.140Z,115
2017-10-12T06:22:34.756Z,120
2017-10-12T06:23:35.369Z,120
2017-10-12T06:24:35.984Z,120
2017-10-12T06:25:36.597Z,115
2017-10-12T06:26:37.215Z,120
2017-10-12T06:27:37.828Z,120
2017-10-12T06:28:38.430Z,120
2017-10-12T06:29:39.047Z,125
2017-10-12T06:30:39.652Z,125
2017-10-12T06:31:40.268Z,125
2017-10-12T06:32:40.889Z,125
2017-10-12T06:33:41.509Z,125
2017-10-12T06:34:42.117Z,130
2017-10-12T06:35:42.739Z,135
2017-10-12T06:36:43.391Z,135
2017-10-12T06:37:43.966Z,135
2017-10-12T06:38:44.586Z,150
2017-10-12T06:39:45.195Z,160
2017-10-12T06:40:45.811Z,165
2017-10-12T06:41:46.423Z,170
2017-10-12T06:42:47.028Z,175
2017-10-12T06:43:47.631Z,180
2017-10-12T06:44:48.253Z,180
2017-10-12T06:45:48.860Z,170
2017-10-12T06:46:49.481Z,165
2017-10-12T06:47:50.081Z,160
2017-10-12T06:48:50.719Z,160
2017-10-12T06:49:51.301Z,155
2017-10-12T06:50:51.922Z,165
2017-10-12T06:51:52.587Z,175
2017-10-12T06:52:53.184Z,195
2017-10-12T06:53:53.798Z,220
2017-10-12T06:54:54.418Z,235
2017-10-12T06:55:55.031Z,245
2017-10-12T06:56:55.636Z,245
2017-10-12T06:57:56.242Z,250
2017-10-12T06:58:56.854Z,255
2017-10-12T06:59:57.485Z,265
2017-10-12T07:00:58.080Z,260
2017-10-12T07:01:58.691Z,245
2017-10-12T07:02:59.313Z,235
2017-10-12T07:03:59.929Z,230
2017-10-12T07:05:00.540Z,230
2017-10-12T07:06:01.191Z,235
2017-10-12T07:07:01.807Z,250
2017-10-12T07:08:02.398Z,265
2017-10-12T07:09:03.004Z,255
2017-10-12T07:10:03.625Z,255
2017-10-12T07:11:04.241Z,290
2017-10-12T07:12:04.857Z,295
2017-10-12T07:13:05.477Z,300
2017-10-12T07:14:06.096Z,305
2017-10-12T07:15:06.711Z,315
2017-10-12T07:16:07.356Z,330
2017-10-12T07:17:07.944Z,360
2017-10-12T07:18:08.573Z,360
2017-10-12T07:19:09.197Z,385
2017-10-12T07:20:09.802Z,380
2017-10-12T07:21:10.418Z,400
2017-10-12T07:22:11.038Z,400
2017-10-12T07:23:11.659Z,400
2017-10-12T07:24:12.268Z,400
2017-10-12T07:25:12.889Z,380
2017-10-12T07:26:13.505Z,345
2017-10-12T07:27:14.178Z,345
2017-10-12T07:28:14.788Z,325
2017-10-12T07:29:15.473Z,315
2017-10-12T07:30:16.090Z,290
2017-10-12T07:31:16.700Z,280
2017-10-12T07:32:17.421Z,275
2017-10-12T07:33:17.944Z,280
2017-10-12T07:34:18.887Z,290
2017-10-12T07:35:19.453Z,300
2017-10-12T07:36:20.349Z,295
2017-10-12T07:37:20.953Z,295
2017-10-12T07:38:22.208Z,320
2017-10-12T07:39:22.801Z,350
2017-10-12T07:40:23.415Z,350
2017-10-12T07:41:24.032Z,375
2017-10-12T07:42:24.650Z,380
2017-10-12T07:43:25.316Z,385
2017-10-12T07:44:26.058Z,400
2017-10-12T07:45:26.586Z,410
2017-10-12T07:46:27.212Z,410
2017-10-12T07:47:28.033Z,390
2017-10-12T07:48:28.652Z,425
2017-10-12T07:49:29.358Z,355
2017-10-12T07:50:30.170Z,380
2017-10-12T07:51:30.813Z,370
2017-10-12T07:52:31.488Z,375
2017-10-12T07:53:32.107Z,355
2017-10-12T07:54:32.730Z,375
2017-10-12T07:55:33.347Z,405
2017-10-12T07:56:33.964Z,375
2017-10-12T07:57:34.577Z,370
2017-10-12T07:58:35.197Z,345
2017-10-12T07:59:35.828Z,285
2017-10-12T08:00:36.437Z,270
2017-10-12T08:01:37.045Z,315
2017-10-12T08:02:37.668Z,275
2017-10-12T08:03:38.303Z,265
2017-10-12T08:04:38.933Z,255
2017-10-12T08:05:39.544Z,250
2017-10-12T08:06:40.155Z,270
2017-10-12T08:07:40.766Z,315
2017-10-12T08:08:41.483Z,360
2017-10-12T08:09:42.086Z,280
2017-10-12T08:10:42.683Z,305
2017-10-12T08:11:43.302Z,330
2017-10-12T08:12:43.926Z,325
2017-10-12T08:13:44.558Z,340
2017-10-12T08:14:45.161Z,390
2017-10-12T08:15:45.781Z,355
2017-10-12T08:16:46.405Z,370
2017-10-12T08:17:47.025Z,435
2017-10-12T08:18:47.639Z,465
2017-10-12T08:19:48.257Z,415
2017-10-12T08:20:48.881Z,360
2017-10-12T08:21:49.505Z,330
2017-10-12T08:22:50.132Z,340
2017-10-12T08:23:50.755Z,380
2017-10-12T08:24:51.372Z,325
2017-10-12T08:25:51.993Z,280
2017-10-12T08:26:52.614Z,295
2017-10-12T08:27:53.231Z,300
2017-10-12T08:28:53.854Z,310
2017-10-12T08:29:54.482Z,280
2017-10-12T08:30:55.106Z,315
2017-10-12T08:31:55.719Z,355
2017-10-12T08:32:56.342Z,350
2017-10-12T08:33:56.968Z,375
2017-10-12T08:34:57.574Z,405
2017-10-12T08:35:58.194Z,445
2017-10-12T08:36:58.815Z,550
2017-10-12T08:37:59.441Z,365
2017-10-12T08:39:00.058Z,400
2017-10-12T08:40:00.672Z,430
2017-10-12T08:41:01.290Z,385
2017-10-12T08:42:01.901Z,385
2017-10-12T08:43:02.518Z,450
2017-10-12T08:44:03.133Z,420
2017-10-12T08:45:03.739Z,440
2017-10-12T08:46:04.372Z,575
2017-10-12T08:47:04.997Z,475
2017-10-12T08:48:05.619Z,450
2017-10-12T08:49:06.237Z,430
2017-10-12T08:50:06.856Z,435
2017-10-12T08:51:07.477Z,485
2017-10-12T08:52:08.080Z,735
2017-10-12T08:53:08.687Z,460
2017-10-12T08:54:09.306Z,720
2017-10-12T08:55:09.922Z,1160
2017-10-12T08:56:10.548Z,1145
2017-10-12T08:57:11.372Z,1150
2017-10-12T08:58:11.988Z,510
2017-10-12T08:59:12.603Z,1070
2017-10-12T09:00:13.226Z,1285
2017-10-12T09:01:13.846Z,1060
2017-10-12T09:02:14.464Z,905
2017-10-12T09:03:15.083Z,385
2017-10-12T09:04:15.923Z,410
2017-10-12T09:05:16.546Z,550
2017-10-12T09:06:17.153Z,450
2017-10-12T09:07:17.777Z,920
2017-10-12T09:08:18.389Z,990
2017-10-12T09:09:19.230Z,1175
2017-10-12T09:10:19.847Z,1245
2017-10-12T09:11:20.485Z,1270
2017-10-12T09:12:21.095Z,425
2017-10-12T09:13:21.729Z,1005
2017-10-12T09:14:22.356Z,960
2017-10-12T09:15:22.968Z,950
2017-10-12T09:16:23.597Z,430
2017-10-12T09:17:24.218Z,1235
2017-10-12T09:18:24.837Z,1330
2017-10-12T09:19:25.469Z,1325
2017-10-12T09:20:26.079Z,1390
2017-10-12T09:21:26.730Z,1470
2017-10-12T09:22:27.351Z,1445
2017-10-12T09:23:27.968Z,1430
2017-10-12T09:24:28.602Z,1290
2017-10-12T09:25:29.229Z,1215
2017-10-12T09:26:29.855Z,1265
2017-10-12T09:27:30.471Z,1530
2017-10-12T09:28:31.100Z,1505
2017-10-12T09:29:31.739Z,1525
2017-10-12T09:30:32.357Z,1560
2017-10-12T09:31:32.974Z,1520
2017-10-12T09:32:33.615Z,1530
2017-10-12T09:33:34.221Z,1590
2017-10-12T09:34:35.073Z,1520
2017-10-12T09:35:35.714Z,1515
2017-10-12T09:36:36.345Z,1570
2017-10-12T09:37:37.003Z,1580
2017-10-12T09:38:37.617Z,1615
2017-10-12T09:39:38.245Z,1560
2017-10-12T09:40:38.874Z,1585
2017-10-12T09:41:39.516Z,1545
2017-10-12T09:42:40.145Z,1530
2017-10-12T09:43:40.779Z,1435
2017-10-12T09:44:41.609Z,1555
2017-10-12T09:45:42.232Z,1095
2017-10-12T09:46:42.862Z,1325
2017-10-12T09:47:43.744Z,750
2017-10-12T09:48:44.755Z,1570
2017-10-12T09:49:45.387Z,1120
2017-10-12T09:50:46.011Z,590
2017-10-12T09:51:46.637Z,1490
2017-10-12T09:52:47.254Z,1430
2017-10-12T09:53:47.881Z,695
2017-10-12T09:54:48.506Z,1185
2017-10-12T09:55:49.115Z,1790
2017-10-12T09:56:49.736Z,1525
2017-10-12T09:57:50.363Z,1620
2017-10-12T09:58:50.996Z,1565
2017-10-12T09:59:51.637Z,1280
2017-10-12T10:00:52.254Z,1315
2017-10-12T10:01:52.879Z,1200
2017-10-12T10:02:53.510Z,1280
2017-10-12T10:03:54.129Z,1425
2017-10-12T10:04:54.747Z,1525
2017-10-12T10:05:55.374Z,1630
2017-10-12T10:06:56.001Z,1530
2017-10-12T10:07:56.628Z,1625
2017-10-12T10:08:57.252Z,1550
2017-10-12T10:09:57.881Z,1520
2017-10-12T10:10:58.502Z,1360
2017-10-12T10:11:59.123Z,1160
2017-10-12T10:12:59.760Z,1055
2017-10-12T10:14:00.375Z,1095
2017-10-12T10:15:01.003Z,1310
2017-10-12T10:16:01.620Z,1385
2017-10-12T10:17:02.242Z,1515
2017-10-12T10:18:02.866Z,1480
2017-10-12T10:19:03.491Z,1410
2017-10-12T10:20:04.123Z,1065
2017-10-12T10:21:04.759Z,1190
2017-10-12T10:22:05.385Z,1325
2017-10-12T10:23:06.017Z,1335
2017-10-12T10:24:06.640Z,1350
2017-10-12T10:25:07.267Z,1270
2017-10-12T10:26:07.888Z,1325
2017-10-12T10:27:08.524Z,1225
2017-10-12T10:28:09.130Z,1135
2017-10-12T10:29:09.752Z,1135
2017-10-12T10:30:10.378Z,1260
2017-10-12T10:31:11.000Z,1345
2017-10-12T10:32:11.623Z,1445
2017-10-12T10:33:12.248Z,1520
2017-10-12T10:34:12.930Z,1505
2017-10-12T10:35:13.518Z,1335
2017-10-12T10:36:14.137Z,1205
2017-10-12T10:37:14.762Z,910
2017-10-12T10:38:15.409Z,1030
2017-10-12T10:39:16.163Z,865
2017-10-12T10:40:16.727Z,975
2017-10-12T10:41:17.349Z,890
2017-10-12T10:42:17.994Z,1105
2017-10-12T10:43:18.618Z,1470
2017-10-12T10:44:19.237Z,1655
2017-10-12T10:45:19.859Z,1765
2017-10-12T10:46:20.487Z,1810
2017-10-12T10:47:21.115Z,1555
2017-10-12T10:48:21.744Z,1770
2017-10-12T10:49:22.367Z,1620
2017-10-12T10:50:22.995Z,1225
2017-10-12T10:51:23.620Z,1775
2017-10-12T10:52:24.239Z,955
2017-10-12T10:53:24.863Z,885
2017-10-12T10:54:25.495Z,1495
2017-10-12T10:55:26.198Z,1660
2017-10-12T10:56:26.741Z,1660
2017-10-12T10:57:27.364Z,970
2017-10-12T10:58:27.988Z,600
2017-10-12T10:59:28.623Z,705
2017-10-12T11:00:29.310Z,835
2017-10-12T11:01:29.936Z,1955
2017-10-12T11:02:30.557Z,935
2017-10-12T11:03:31.430Z,755
2017-10-12T11:04:32.596Z,2055
2017-10-12T11:05:33.198Z,795
2017-10-12T11:06:33.810Z,670
2017-10-12T11:07:34.447Z,665
2017-10-12T11:08:35.120Z,635
2017-10-12T11:09:35.720Z,670
2017-10-12T11:10:36.334Z,655
2017-10-12T11:11:36.947Z,1300
2017-10-12T11:12:37.570Z,925
2017-10-12T11:13:38.203Z,480
2017-10-12T11:14:38.939Z,425
2017-10-12T11:15:39.612Z,485
2017-10-12T11:16:40.226Z,1190
2017-10-12T11:17:40.845Z,1055
2017-10-12T11:18:41.463Z,840
2017-10-12T11:19:42.085Z,790
2017-10-12T11:20:42.707Z,1520
2017-10-12T11:21:43.330Z,1070
2017-10-12T11:22:43.948Z,955
2017-10-12T11:23:44.568Z,1860
2017-10-12T11:24:45.202Z,1055
2017-10-12T11:25:45.809Z,840
2017-10-12T11:26:46.469Z,905
2017-10-12T11:27:47.114Z,785
2017-10-12T11:28:47.750Z,775
2017-10-12T11:29:48.363Z,1260
2017-10-12T11:30:48.978Z,775
2017-10-12T11:31:49.604Z,1235
2017-10-12T11:32:50.231Z,765
2017-10-12T11:33:50.861Z,1310
2017-10-12T11:34:51.493Z,880
2017-10-12T11:35:52.097Z,1650
2017-10-12T11:36:52.761Z,1635
2017-10-12T11:37:53.360Z,855
2017-10-12T11:38:53.977Z,1615
2017-10-12T11:39:54.599Z,1210
2017-10-12T11:40:55.223Z,720
2017-10-12T11:41:55.849Z,860
2017-10-12T11:42:56.474Z,1165
2017-10-12T11:43:57.089Z,1140
2017-10-12T11:44:57.716Z,930
2017-10-12T11:45:58.341Z,930
2017-10-12T11:46:58.967Z,1320
2017-10-12T11:47:59.585Z,1365
2017-10-12T11:49:00.209Z,775
2017-10-12T11:50:00.835Z,700
2017-10-12T11:51:01.454Z,715
2017-10-12T11:52:02.077Z,725
2017-10-12T11:53:02.702Z,790
2017-10-12T11:54:03.332Z,990
2017-10-12T11:55:03.949Z,865
2017-10-12T11:56:04.573Z,825
2017-10-12T11:57:05.192Z,900
2017-10-12T11:58:05.822Z,1585
2017-10-12T11:59:06.553Z,1405
2017-10-12T12:00:07.087Z,1460
2017-10-12T12:01:07.724Z,860
2017-10-12T12:02:08.364Z,1320
2017-10-12T12:03:08.976Z,1390
2017-10-12T12:04:09.610Z,1425
2017-10-12T12:05:10.239Z,1445
2017-10-12T12:06:10.857Z,1405
2017-10-12T12:07:11.492Z,1320
2017-10-12T12:08:12.108Z,790
2017-10-12T12:09:12.731Z,1450
2017-10-12T12:10:13.351Z,900
2017-10-12T12:11:13.967Z,1225
2017-10-12T12:12:14.585Z,1290
2017-10-12T12:13:15.209Z,1235
2017-10-12T12:14:15.828Z,1290
2017-10-12T12:15:16.453Z,900
2017-10-12T12:16:17.078Z,975
2017-10-12T12:17:17.700Z,1405
2017-10-12T12:18:18.325Z,985
2017-10-12T12:19:18.931Z,905
2017-10-12T12:20:19.554Z,975
2017-10-12T12:21:20.180Z,1640
2017-10-12T12:22:20.798Z,1020
2017-10-12T12:23:21.418Z,915
2017-10-12T12:24:22.050Z,1160
2017-10-12T12:25:22.798Z,890
2017-10-12T12:26:23.363Z,750
2017-10-12T12:27:23.987Z,730
2017-10-12T12:28:24.622Z,705
2017-10-12T12:29:25.230Z,1330
2017-10-12T12:30:25.840Z,870
2017-10-12T12:31:26.463Z,575
2017-10-12T12:32:27.071Z,575
2017-10-12T12:33:27.693Z,560
2017-10-12T12:34:28.302Z,675
2017-10-12T12:35:28.916Z,1390
2017-10-12T12:36:29.528Z,1560
2017-10-12T12:37:30.151Z,1585
2017-10-12T12:38:30.762Z,1295
2017-10-12T12:39:31.380Z,1260
2017-10-12T12:40:31.993Z,1055
2017-10-12T12:41:32.615Z,860
2017-10-12T12:42:33.226Z,740
2017-10-12T12:43:33.845Z,730
2017-10-12T12:44:34.468Z,725
2017-10-12T12:45:35.085Z,690
2017-10-12T12:46:35.708Z,625
2017-10-12T12:47:36.330Z,855
2017-10-12T12:48:36.952Z,1115
2017-10-12T12:49:37.575Z,1620
2017-10-12T12:50:38.349Z,1700
2017-10-12T12:51:38.938Z,1590
2017-10-12T12:52:39.559Z,770
2017-10-12T12:53:40.184Z,695
2017-10-12T12:54:40.787Z,1465
2017-10-12T12:55:41.396Z,820
2017-10-12T12:56:42.020Z,1600
2017-10-12T12:57:42.650Z,1655
2017-10-12T12:58:43.260Z,760
2017-10-12T12:59:43.884Z,1570
2017-10-12T13:00:44.546Z,720
2017-10-12T13:01:45.492Z,730
2017-10-12T13:02:47.086Z,790
2017-10-12T13:03:47.708Z,910
2017-10-12T13:04:48.329Z,740
2017-10-12T13:05:48.945Z,695
2017-10-12T13:06:49.562Z,635
2017-10-12T13:07:50.180Z,610
2017-10-12T13:08:50.804Z,640
2017-10-12T13:09:51.434Z,600
2017-10-12T13:10:52.269Z,555
2017-10-12T13:11:52.896Z,595
2017-10-12T13:12:53.516Z,950
2017-10-12T13:13:54.135Z,1090
2017-10-12T13:14:54.753Z,1270
2017-10-12T13:15:55.376Z,1025
2017-10-12T13:16:56.003Z,720
2017-10-12T13:17:56.623Z,1330
2017-10-12T13:18:57.244Z,1170
2017-10-12T13:19:57.875Z,1290
2017-10-12T13:20:58.490Z,1045
2017-10-12T13:21:59.097Z,1095
2017-10-12T13:22:59.707Z,965
2017-10-12T13:24:00.316Z,930
2017-10-12T13:25:00.940Z,885
2017-10-12T13:26:01.582Z,860
2017-10-12T13:27:02.184Z,815
2017-10-12T13:28:02.810Z,770
2017-10-12T13:29:03.421Z,725
2017-10-12T13:30:04.042Z,725
2017-10-12T13:31:04.661Z,700
2017-10-12T13:32:05.283Z,690
2017-10-12T13:33:05.903Z,665
2017-10-12T13:34:06.540Z,695
2017-10-12T13:35:07.142Z,675
2017-10-12T13:36:07.762Z,635
2017-10-12T13:37:08.376Z,615
2017-10-12T13:38:08.983Z,630
2017-10-12T13:39:09.601Z,660
2017-10-12T13:40:10.232Z,645
2017-10-12T13:41:10.848Z,650
2017-10-12T13:42:11.470Z,625
2017-10-12T13:43:12.079Z,545
2017-10-12T13:44:12.700Z,585
2017-10-12T13:45:13.323Z,670
2017-10-12T13:46:13.937Z,650
2017-10-12T13:47:14.559Z,625
2017-10-12T13:48:15.190Z,625
2017-10-12T13:49:15.813Z,735
2017-10-12T13:50:16.440Z,885
2017-10-12T13:51:17.056Z,965
2017-10-12T13:52:17.686Z,865
2017-10-12T13:53:18.299Z,750
2017-10-12T13:54:18.960Z,745
2017-10-12T13:55:19.570Z,705
2017-10-12T13:56:20.195Z,670
2017-10-12T13:57:20.817Z,790
2017-10-12T13:58:21.431Z,810
2017-10-12T13:59:22.049Z,865
2017-10-12T14:00:22.666Z,850
2017-10-12T14:01:23.307Z,745
2017-10-12T14:02:23.911Z,715
2017-10-12T14:03:24.534Z,720
2017-10-12T14:04:25.148Z,680
2017-10-12T14:05:25.773Z,645
2017-10-12T14:06:26.389Z,660
2017-10-12T14:07:26.997Z,630
2017-10-12T14:08:27.617Z,595
2017-10-12T14:09:28.234Z,595
2017-10-12T14:10:28.859Z,605
2017-10-12T14:11:29.479Z,595
2017-10-12T14:12:30.098Z,570
2017-10-12T14:13:30.715Z,565
2017-10-12T14:14:31.338Z,545